createdAt,value
2022-09-12T00:02:42.958Z,97348.88
2022-09-12T00:07:45.211Z,97347.59
2022-09-12T00:12:46.922Z,97339.38
2022-09-12T00:17:48.547Z,97335.00
2022-09-12T00:22:50.177Z,97338.59
2022-09-12T00:27:51.885Z,97336.66
2022-09-12T00:32:54.728Z,97346.09
2022-09-12T00:37:56.691Z,97346.06
2022-09-12T00:42:59.048Z,97331.50
2022-09-12T00:48:04.382Z,97321.94
2022-09-12T00:53:07.994Z,97320.84
2022-09-12T00:58:14.611Z,97317.50
2022-09-12T01:03:19.397Z,97323.56
2022-09-12T01:08:22.001Z,97308.69
2022-09-12T01:13:24.383Z,97311.41
2022-09-12T01:18:39.683Z,97311.16
2022-09-12T01:24:01.661Z,97314.75
2022-09-12T01:30:00.954Z,97305.75
2022-09-12T01:35:16.558Z,97306.03
2022-09-12T01:40:23.882Z,97302.44
2022-09-12T01:45:54.291Z,97314.81
2022-09-12T01:51:08.909Z,97301.34
2022-09-12T01:56:17.783Z,97298.63
2022-09-12T02:01:31.875Z,97289.56
2022-09-12T02:06:52.294Z,97283.00
2022-09-12T02:11:58.544Z,97281.34
2022-09-12T02:17:07.446Z,97279.97
2022-09-12T02:22:14.839Z,97277.50
2022-09-12T02:27:21.657Z,97267.34
2022-09-12T02:32:36.145Z,97262.16
2022-09-12T02:38:03.726Z,97257.78
2022-09-12T02:43:06.875Z,97261.59
2022-09-12T02:48:14.992Z,97257.50
2022-09-12T02:53:18.008Z,97250.63
2022-09-12T02:58:26.974Z,97254.50
2022-09-12T03:03:55.471Z,97248.72
2022-09-12T03:09:39.584Z,97250.66
2022-09-12T03:14:52.585Z,97247.34
2022-09-12T03:20:03.558Z,97244.06
2022-09-12T03:25:18.020Z,97253.66
2022-09-12T03:30:20.530Z,97244.59
2022-09-12T03:35:24.383Z,97251.19
2022-09-12T03:40:25.975Z,97247.91
2022-09-12T03:45:28.250Z,97253.94
2022-09-12T03:50:30.395Z,97250.63
2022-09-12T03:55:32.045Z,97241.88
2022-09-12T04:00:33.698Z,97253.66
2022-09-12T04:05:36.170Z,97249.00
2022-09-12T04:10:37.834Z,97248.72
2022-09-12T04:15:39.517Z,97249.47
2022-09-12T04:20:41.375Z,97250.00
2022-09-12T04:25:43.067Z,97260.16
2022-09-12T04:30:44.740Z,97264.25
2022-09-12T04:35:46.504Z,97257.44
2022-09-12T04:40:48.390Z,97250.31
2022-09-12T04:45:50.288Z,97255.31
2022-09-12T04:50:51.959Z,97259.97
2022-09-12T04:55:53.668Z,97256.63
2022-09-12T05:00:55.385Z,97262.16
2022-09-12T05:05:57.106Z,97264.34
2022-09-12T05:11:06.830Z,97260.25
2022-09-12T05:16:11.152Z,97264.91
2022-09-12T05:21:18.928Z,97261.06
2022-09-12T05:26:21.363Z,97270.94
2022-09-12T05:31:27.923Z,97266.53
2022-09-12T05:36:30.663Z,97273.97
2022-09-12T05:41:33.910Z,97281.06
2022-09-12T05:46:38.079Z,97288.78
2022-09-12T05:51:42.985Z,97284.38
2022-09-12T05:56:45.214Z,97278.06
2022-09-12T06:01:47.600Z,97285.63
2022-09-12T06:06:49.310Z,97289.59
2022-09-12T06:11:51.867Z,97284.53
2022-09-12T06:16:53.621Z,97283.91
2022-09-12T06:21:55.496Z,97291.94
2022-09-12T06:26:57.838Z,97279.13
2022-09-12T06:31:59.725Z,97288.25
2022-09-12T06:37:01.319Z,97290.50
2022-09-12T06:42:03.642Z,97297.66
2022-09-12T06:47:09.071Z,97286.66
2022-09-12T06:52:10.706Z,97286.03
2022-09-12T06:57:12.320Z,97288.72
2022-09-12T07:02:14.194Z,97284.81
2022-09-12T07:07:15.842Z,97293.56
2022-09-12T07:12:17.476Z,97291.00
2022-09-12T07:17:19.205Z,97292.25
2022-09-12T07:22:20.802Z,97296.03
2022-09-12T07:27:22.469Z,97290.50
2022-09-12T07:32:24.142Z,97284.81
2022-09-12T07:37:25.866Z,97289.03
2022-09-12T07:42:27.527Z,97280.41
2022-09-12T07:47:29.278Z,97280.00
2022-09-12T07:52:31.256Z,97282.34
2022-09-12T07:57:32.921Z,97279.97
2022-09-12T08:02:35.028Z,97283.56
2022-09-12T08:07:36.683Z,97276.47
2022-09-12T08:12:38.593Z,97283.91
2022-09-12T08:17:41.281Z,97284.66
2022-09-12T08:22:43.305Z,97285.09
2022-09-12T08:27:46.802Z,97288.63
2022-09-12T08:32:48.695Z,97284.75
2022-09-12T08:37:50.343Z,97290.94
2022-09-12T08:43:41.044Z,97293.56
2022-09-12T08:48:46.276Z,97291.31
2022-09-12T08:53:51.796Z,97288.75
2022-09-12T08:58:53.618Z,97289.56
2022-09-12T09:04:43.347Z,97288.44
2022-09-12T09:09:59.154Z,97280.66
2022-09-12T09:15:23.620Z,97282.81
2022-09-12T09:21:06.156Z,97278.75
2022-09-12T09:26:22.344Z,97277.59
2022-09-12T09:31:26.203Z,97272.97
2022-09-12T09:36:49.784Z,97271.06
2022-09-12T09:42:21.991Z,97275.50
2022-09-12T09:47:23.789Z,97266.88
2022-09-12T09:52:29.472Z,97261.06
2022-09-12T09:57:34.058Z,97251.59
2022-09-12T10:02:36.085Z,97258.13
2022-09-12T10:07:38.053Z,97243.66
2022-09-12T10:12:40.139Z,97246.47
2022-09-12T10:17:48.062Z,97235.50
2022-09-12T10:22:49.805Z,97244.19
2022-09-12T10:27:58.530Z,97230.94
2022-09-12T10:33:12.122Z,97237.63
2022-09-12T10:38:22.661Z,97234.63
2022-09-12T10:43:29.742Z,97232.84
2022-09-12T10:48:32.543Z,97238.03
2022-09-12T10:53:45.475Z,97234.81
2022-09-12T10:59:12.076Z,97224.38
2022-09-12T11:04:25.878Z,97230.41
2022-09-12T11:09:39.677Z,97221.19
2022-09-12T11:15:02.946Z,97214.13
2022-09-12T11:20:27.831Z,97207.00
2022-09-12T11:26:00.012Z,97217.53
2022-09-12T11:31:19.824Z,97211.03
2022-09-12T11:36:45.607Z,97203.78
2022-09-12T11:41:52.536Z,97209.28
2022-09-12T11:46:54.210Z,97209.22
2022-09-12T11:52:11.078Z,97202.94
2022-09-12T11:57:25.034Z,97191.38
2022-09-12T12:02:28.933Z,97183.63
2022-09-12T12:07:45.603Z,97178.06
2022-09-12T12:12:48.495Z,97183.88
2022-09-12T12:18:04.848Z,97183.22
2022-09-12T12:23:06.555Z,97181.25
2022-09-12T12:28:08.358Z,97177.25
2022-09-12T12:33:16.031Z,97172.66
2022-09-12T12:38:33.466Z,97169.13
2022-09-12T12:43:35.263Z,97163.00
2022-09-12T12:48:48.943Z,97153.53
2022-09-12T12:53:52.346Z,97136.72
2022-09-12T12:59:01.121Z,97138.81
2022-09-12T13:04:12.250Z,97141.88
2022-09-12T13:09:26.949Z,97124.13
2022-09-12T13:14:34.499Z,97114.34
2022-09-12T13:19:37.226Z,97113.84
2022-09-12T13:24:44.663Z,97095.28
2022-09-12T13:29:46.810Z,97093.88
2022-09-12T13:35:12.954Z,97092.25
2022-09-12T13:40:36.530Z,97092.84
2022-09-12T13:45:41.711Z,97098.72
2022-09-12T13:50:59.900Z,97080.56
2022-09-12T13:56:01.949Z,97084.22
2022-09-12T14:01:12.975Z,97079.09
2022-09-12T14:06:16.310Z,97075.16
2022-09-12T14:11:33.847Z,97073.97
2022-09-12T14:16:40.511Z,97071.06
2022-09-12T14:21:42.411Z,97069.56
2022-09-12T14:26:44.874Z,97067.03
2022-09-12T14:31:46.610Z,97059.53
2022-09-12T14:36:54.988Z,97060.22
2022-09-12T14:42:03.443Z,97058.50
2022-09-12T14:47:21.154Z,97055.88
2022-09-12T14:52:30.477Z,97043.56
2022-09-12T14:57:40.463Z,97050.78
2022-09-12T15:02:44.401Z,97037.31
2022-09-12T15:07:55.521Z,97034.06
2022-09-12T15:13:09.343Z,97038.28
2022-09-12T15:18:12.131Z,97040.50
2022-09-12T15:23:19.130Z,97036.44
2022-09-12T15:28:23.483Z,97033.25
2022-09-12T15:33:25.553Z,97033.28
2022-09-12T15:38:27.322Z,97023.38
2022-09-12T15:43:28.960Z,97020.78
2022-09-12T15:48:30.962Z,97012.09
2022-09-12T15:53:32.987Z,97017.34
2022-09-12T15:58:34.902Z,97009.03
2022-09-12T16:03:37.120Z,96989.53
2022-09-12T16:08:38.773Z,96998.41
2022-09-12T16:13:40.695Z,97005.59
2022-09-12T16:18:42.720Z,97001.41
2022-09-12T16:23:45.909Z,97005.44
2022-09-12T16:28:47.965Z,96995.84
2022-09-12T16:33:49.642Z,96997.88
2022-09-12T16:38:53.655Z,96987.97
2022-09-12T16:43:55.647Z,96987.41
2022-09-12T16:48:58.595Z,96978.88
2022-09-12T16:54:04.182Z,96985.63
2022-09-12T16:59:06.506Z,96982.09
2022-09-12T17:04:10.109Z,96977.53
2022-09-12T17:09:13.079Z,96989.13
2022-09-12T17:14:15.077Z,96981.25
2022-09-12T17:19:22.035Z,96990.84
2022-09-12T17:24:25.029Z,96996.34
2022-09-12T17:29:27.361Z,96996.66
2022-09-12T17:34:29.093Z,96998.25
2022-09-12T17:39:30.926Z,96996.88
2022-09-12T17:44:32.872Z,96994.34
2022-09-12T17:49:34.958Z,96999.03
2022-09-12T17:54:36.768Z,96989.44
2022-09-12T17:59:38.437Z,96984.81
2022-09-12T18:04:41.188Z,96983.41
2022-09-12T18:09:43.322Z,96985.72
2022-09-12T18:14:44.963Z,96990.97
2022-09-12T18:19:52.843Z,96994.97
2022-09-12T18:24:55.245Z,96988.41
2022-09-12T18:30:19.702Z,96984.63
2022-09-12T18:35:18.609Z,96987.94
2022-09-12T18:40:20.249Z,96987.66
2022-09-12T18:45:21.922Z,96992.25
2022-09-12T18:50:24.577Z,96996.97
2022-09-12T18:55:26.257Z,97008.53
2022-09-12T19:00:28.560Z,96999.34
2022-09-12T19:05:30.184Z,96999.97
2022-09-12T19:10:31.857Z,97006.09
2022-09-12T19:15:33.520Z,97008.72
2022-09-12T19:20:36.389Z,97000.94
2022-09-12T19:25:37.969Z,97004.81
2022-09-12T19:30:47.144Z,97015.56
2022-09-12T19:35:49.596Z,97010.16
2022-09-12T19:40:59.553Z,97019.63
2022-09-12T19:46:02.185Z,97016.13
2022-09-12T19:51:04.570Z,97014.13
2022-09-12T19:56:07.667Z,97012.44
2022-09-12T20:01:11.018Z,97005.91
2022-09-12T20:06:16.156Z,96997.91
2022-09-12T20:11:19.822Z,96989.03
2022-09-12T20:16:25.489Z,96989.81
2022-09-12T20:21:31.448Z,96994.66
2022-09-12T20:26:34.092Z,96989.97
2022-09-12T20:31:38.468Z,96988.78
2022-09-12T20:36:40.572Z,96988.38
2022-09-12T20:41:42.542Z,96986.16
2022-09-12T20:46:44.429Z,96985.72
2022-09-12T20:51:48.330Z,96984.66
2022-09-12T20:56:50.094Z,96979.31
2022-09-12T21:01:52.198Z,96971.72
2022-09-12T21:06:53.965Z,96971.72
2022-09-12T21:11:55.666Z,96967.94
2022-09-12T21:16:57.444Z,96963.03
2022-09-12T21:21:59.168Z,96966.13
2022-09-12T21:27:04.168Z,96967.03
2022-09-12T21:32:09.026Z,96969.19
2022-09-12T21:37:12.623Z,96972.59
2022-09-12T21:42:14.404Z,96970.91
2022-09-12T21:47:16.573Z,96971.72
2022-09-12T21:52:18.243Z,96977.69
2022-09-12T21:57:19.898Z,96971.59
2022-09-12T22:02:23.057Z,96978.06
2022-09-12T22:07:25.051Z,96989.88
2022-09-12T22:12:28.123Z,96985.66
2022-09-12T22:17:29.987Z,96984.22
2022-09-12T22:22:50.291Z,96976.50
2022-09-12T22:27:52.884Z,96971.72
2022-09-12T22:32:54.635Z,96962.19
2022-09-12T22:37:56.257Z,96950.75
2022-09-12T22:42:57.949Z,96956.97
2022-09-12T22:48:00.913Z,96944.50
2022-09-12T22:53:03.040Z,96956.09
2022-09-12T22:58:04.763Z,96943.25
2022-09-12T23:03:06.452Z,96933.56
2022-09-12T23:08:08.097Z,96928.59
2022-09-12T23:13:10.739Z,96921.97
2022-09-12T23:18:12.418Z,96923.97
2022-09-12T23:23:14.047Z,96923.16
2022-09-12T23:28:15.692Z,96932.09
2022-09-12T23:33:17.649Z,96933.28
2022-09-12T23:38:19.313Z,96927.19
2022-09-12T23:43:21.311Z,96922.13
2022-09-12T23:48:23.378Z,96929.34
2022-09-12T23:53:25.713Z,96915.78
2022-09-12T23:58:27.464Z,96909.09
